Time;durP1;ratioP1;P1;durP2;ratioP2;P2;SDS_P1;SDS_P2;PMS_P1;PMS_P2;Temp;Humidity;BMP_temperature;BMP_pressure;BME280_temperature;BME280_humidity;BME280_pressure;Samples;Min_cycle;Max_cycle;Signal;HPM_P1;HPM_P2
2023/10/12 00:01:14;;;;;;;;;;;;;;;16.53;100.00;97973.06;5124454;28;20016;-68
2023/10/12 00:03:44;;;;;;;;;;;;;;;16.50;100.00;97975.53;5107929;28;19959;-68
2023/10/12 00:06:13;;;;;;;;;;;;;;;16.49;100.00;97979.38;5121181;28;19928;-68
2023/10/12 00:08:40;;;;;;;;;;;;;;;16.55;100.00;97972.81;5122699;28;19931;-68
2023/10/12 00:11:07;;;;;;;;;;;;;;;16.65;100.00;97984.16;5124491;28;20520;-67
2023/10/12 00:13:38;;;;;;;;;;;;;;;16.72;100.00;97981.88;5125780;28;19924;-67
2023/10/12 00:16:09;;;;;;;;;;;;;;;16.56;100.00;97969.78;5105158;28;19924;-67
2023/10/12 00:18:38;;;;;;;;;;;;;;;16.59;100.00;97965.69;5122139;28;19928;-67
2023/10/12 00:21:15;;;;;;;;;;;;;;;16.75;100.00;97969.69;5123965;28;19934;-67
2023/10/12 00:23:43;;;;;;;;;;;;;;;16.45;100.00;97967.56;5125740;28;19950;-67
2023/10/12 00:26:10;;;;;;;;;;;;;;;16.29;100.00;97971.66;5104668;28;19974;-67
2023/10/12 00:28:38;;;;;;;;;;;;;;;16.01;100.00;97960.03;5122048;28;19944;-68
2023/10/12 00:31:12;;;;;;;;;;;;;;;16.06;100.00;97959.97;5106160;28;19966;-68
2023/10/12 00:33:38;;;;;;;;;;;;;;;16.24;100.00;97956.38;5125345;28;19923;-68
2023/10/12 00:36:19;;;;;;;;;;;;;;;16.25;100.00;97962.59;5121254;28;19924;-68
2023/10/12 00:38:46;;;;;;;;;;;;;;;16.59;100.00;97947.63;5121521;28;19970;-67
2023/10/12 00:41:14;;;;;;;;;;;;;;;16.52;100.00;97954.50;5124999;28;20029;-67
2023/10/12 00:43:49;;;;;;;;;;;;;;;16.25;100.00;97944.50;5125407;28;19943;-67
2023/10/12 00:46:21;;;;;;;;;;;;;;;16.31;100.00;97946.00;5113391;28;19934;-68
2023/10/12 00:48:50;;;;;;;;;;;;;;;16.29;100.00;97945.50;5121823;28;19924;-67
2023/10/12 00:51:18;;;;;;;;;;;;;;;16.32;100.00;97952.19;5095543;28;19928;-67
2023/10/12 00:53:55;;;;;;;;;;;;;;;16.24;100.00;97950.19;5121578;28;19962;-67
2023/10/12 00:56:22;;;;;;;;;;;;;;;16.15;100.00;97953.56;5114134;28;19924;-67
2023/10/12 00:58:50;;;;;;;;;;;;;;;15.99;100.00;97948.75;5121570;28;19951;-67
2023/10/12 01:01:18;;;;;;;;;;;;;;;15.87;100.00;97959.22;5113492;28;19924;-68
2023/10/12 01:03:45;;;;;;;;;;;;;;;15.83;100.00;97952.81;5121566;28;19924;-68
2023/10/12 01:06:20;;;;;;;;;;;;;;;15.78;100.00;97953.72;5121624;28;19924;-68
2023/10/12 01:08:48;;;;;;;;;;;;;;;15.79;100.00;97949.09;5121449;28;19932;-67
2023/10/12 01:11:19;;;;;;;;;;;;;;;16.30;100.00;97943.59;5124493;28;19924;-67
2023/10/12 01:13:48;;;;;;;;;;;;;;;16.14;100.00;97957.38;5124755;28;19923;-67
2023/10/12 01:16:21;;;;;;;;;;;;;;;16.44;100.00;97944.41;5121456;28;19924;-67
2023/10/12 01:18:50;;;;;;;;;;;;;;;15.92;100.00;97932.19;5121194;28;19928;-67
2023/10/12 01:21:17;;;;;;;;;;;;;;;15.86;100.00;97944.94;5113116;28;19928;-66
2023/10/12 01:23:50;;;;;;;;;;;;;;;15.37;100.00;97941.97;5121193;28;19924;-67
2023/10/12 01:26:17;;;;;;;;;;;;;;;15.91;100.00;97944.84;5112983;28;19943;-67
2023/10/12 01:28:48;;;;;;;;;;;;;;;16.18;100.00;97936.78;5120953;28;19963;-67
2023/10/12 01:31:18;;;;;;;;;;;;;;;16.01;100.00;97936.59;5124193;28;19924;-68
2023/10/12 01:33:50;;;;;;;;;;;;;;;15.74;100.00;97931.16;5124421;28;19923;-68
2023/10/12 01:36:17;;;;;;;;;;;;;;;15.33;100.00;97940.94;5110991;28;19928;-68
2023/10/12 01:38:47;;;;;;;;;;;;;;;15.68;100.00;97937.72;5120529;28;19971;-68
2023/10/12 01:41:17;;;;;;;;;;;;;;;15.61;100.00;97930.03;5124025;28;19924;-68
2023/10/12 01:43:47;;;;;;;;;;;;;;;15.13;100.00;97936.69;5124235;28;19951;-68
2023/10/12 01:46:16;;;;;;;;;;;;;;;15.47;100.00;97939.13;5120965;28;19924;-68
2023/10/12 01:48:42;;;;;;;;;;;;;;;15.24;100.00;97940.00;5120540;28;19924;-68
2023/10/12 01:51:14;;;;;;;;;;;;;;;14.94;100.00;97946.63;5123362;28;19946;-68
2023/10/12 01:53:41;;;;;;;;;;;;;;;15.27;100.00;97947.50;5124011;28;19976;-68
2023/10/12 01:56:10;;;;;;;;;;;;;;;15.56;100.00;97945.47;5121638;28;19931;-68
2023/10/12 01:58:40;;;;;;;;;;;;;;;15.47;100.00;97948.00;5120369;28;20439;-68
2023/10/12 02:01:07;;;;;;;;;;;;;;;15.56;100.00;97946.28;5122643;28;19970;-67
2023/10/12 02:03:33;;;;;;;;;;;;;;;15.34;100.00;97947.94;5123861;28;19930;-67
2023/10/12 02:06:00;;;;;;;;;;;;;;;15.34;100.00;97953.31;5120230;28;19938;-67
2023/10/12 02:08:32;;;;;;;;;;;;;;;15.25;100.00;97952.38;5120089;28;20108;-67
2023/10/12 02:11:06;;;;;;;;;;;;;;;15.45;100.00;97952.06;5121076;28;19983;-67
2023/10/12 02:13:34;;;;;;;;;;;;;;;15.51;100.00;97950.91;5123509;28;19946;-67
2023/10/12 02:16:01;;;;;;;;;;;;;;;15.34;100.00;97956.81;5122173;28;19927;-67
2023/10/12 02:18:30;;;;;;;;;;;;;;;15.06;100.00;97942.41;5119894;28;19924;-67
2023/10/12 02:23:57;;;;;;;;;;;;;;;14.93;100.00;97945.03;5120679;28;19931;-67
2023/10/12 02:26:35;;;;;;;;;;;;;;;15.49;100.00;97948.53;5112971;28;19924;-67
2023/10/12 02:29:11;;;;;;;;;;;;;;;15.14;100.00;97946.31;5121283;28;19928;-67
2023/10/12 02:31:39;;;;;;;;;;;;;;;14.69;100.00;97942.38;5123512;28;19924;-68
2023/10/12 02:34:05;;;;;;;;;;;;;;;14.35;100.00;97958.66;5102943;28;19934;-68
2023/10/12 02:36:31;;;;;;;;;;;;;;;14.34;100.00;97964.28;5117653;28;20429;-68
2023/10/12 02:39:00;;;;;;;;;;;;;;;14.52;100.00;97969.72;5120437;28;19924;-67
2023/10/12 02:41:34;;;;;;;;;;;;;;;14.36;100.00;97967.50;5122686;28;20209;-67
2023/10/12 02:44:11;;;;;;;;;;;;;;;14.53;100.00;97974.03;5121821;28;19957;-67
2023/10/12 02:46:48;;;;;;;;;;;;;;;14.52;100.00;97976.97;5119767;28;19924;-67
2023/10/12 02:49:15;;;;;;;;;;;;;;;14.35;100.00;97966.72;5122879;28;19924;-67
2023/10/12 02:51:42;;;;;;;;;;;;;;;14.24;100.00;97967.06;5122910;28;19924;-67
2023/10/12 02:54:14;;;;;;;;;;;;;;;14.13;100.00;97961.00;5120085;28;19928;-67
2023/10/12 02:56:42;;;;;;;;;;;;;;;14.26;100.00;97962.22;5119641;28;19970;-67
2023/10/12 02:59:09;;;;;;;;;;;;;;;14.00;100.00;97964.34;5122459;28;19921;-67
2023/10/12 03:01:38;;;;;;;;;;;;;;;13.96;100.00;97974.03;5123356;28;19931;-67
2023/10/12 03:04:10;;;;;;;;;;;;;;;14.33;100.00;97958.13;5121161;28;19923;-67
2023/10/12 03:06:52;;;;;;;;;;;;;;;14.45;100.00;97968.47;5117393;28;19928;-67
2023/10/12 03:09:25;;;;;;;;;;;;;;;14.55;100.00;97962.97;5111650;28;19924;-67
2023/10/12 03:11:56;;;;;;;;;;;;;;;14.58;100.00;97967.78;5119628;28;19954;-67
2023/10/12 03:14:26;;;;;;;;;;;;;;;14.49;100.00;97964.13;5123004;28;20046;-67
2023/10/12 03:16:53;;;;;;;;;;;;;;;14.31;100.00;97960.25;5104630;28;19953;-67
2023/10/12 03:19:25;;;;;;;;;;;;;;;14.00;100.00;97962.47;5119392;28;19924;-67
2023/10/12 03:21:52;;;;;;;;;;;;;;;13.78;100.00;97966.69;5119566;28;19955;-67
2023/10/12 03:24:21;;;;;;;;;;;;;;;13.62;100.00;97957.97;5122840;28;19924;-67
2023/10/12 03:26:57;;;;;;;;;;;;;;;13.46;100.00;97961.88;5122952;28;19927;-67
2023/10/12 03:29:26;;;;;;;;;;;;;;;13.47;100.00;97960.78;5112994;28;19928;-67
2023/10/12 03:31:57;;;;;;;;;;;;;;;13.50;100.00;97974.44;5120397;28;19946;-67
2023/10/12 03:34:35;;;;;;;;;;;;;;;13.44;100.00;97977.44;5124646;28;19955;-67
2023/10/12 03:37:03;;;;;;;;;;;;;;;13.31;100.00;97975.38;5118298;28;19932;-67
2023/10/12 03:39:32;;;;;;;;;;;;;;;13.16;100.00;97967.44;5126894;28;19962;-68
2023/10/12 03:42:13;;;;;;;;;;;;;;;13.22;100.00;97971.69;5126012;28;19924;-68
2023/10/12 03:44:49;;;;;;;;;;;;;;;13.13;100.00;97968.78;5123565;28;19942;-67
2023/10/12 03:47:23;;;;;;;;;;;;;;;13.19;100.00;97964.19;5115017;28;19924;-67
2023/10/12 03:50:07;;;;;;;;;;;;;;;13.21;100.00;97973.59;5123700;28;19931;-67
2023/10/12 03:52:39;;;;;;;;;;;;;;;13.07;100.00;97963.69;5118334;28;20408;-67
2023/10/12 03:58:00;;;;;;;;;;;;;;;13.31;100.00;97960.09;5127348;28;19923;-67
2023/10/12 04:00:32;;;;;;;;;;;;;;;13.22;100.00;97960.94;5116718;28;19954;-67
2023/10/12 04:03:03;;;;;;;;;;;;;;;13.22;100.00;97963.63;5124525;28;19955;-67
2023/10/12 04:05:46;;;;;;;;;;;;;;;12.98;100.00;97964.28;5126327;28;19983;-67
2023/10/12 04:16:45;;;;;;;;;;;;;;;13.42;100.00;97960.81;5091892;28;19924;-67
2023/10/12 04:19:10;;;;;;;;;;;;;;;13.96;100.00;97961.41;5125397;28;19927;-67
2023/10/12 04:21:40;;;;;;;;;;;;;;;14.04;100.00;97963.50;5126058;28;19999;-67
2023/10/12 04:33:11;;;;;;;;;;;;;;;14.26;100.00;97960.31;5120464;27;19999;-67
2023/10/12 04:35:52;;;;;;;;;;;;;;;14.88;100.00;97964.72;5119882;28;19945;-67
2023/10/12 04:38:56;;;;;;;;;;;;;;;14.14;100.00;97954.56;5109372;28;19928;-67
2023/10/12 04:41:38;;;;;;;;;;;;;;;13.77;100.00;97962.44;5119535;28;19924;-67
2023/10/12 04:44:25;;;;;;;;;;;;;;;14.07;100.00;97970.19;5118611;28;19924;-67
2023/10/12 04:46:58;;;;;;;;;;;;;;;14.17;100.00;97963.91;5117078;28;19963;-67
2023/10/12 04:52:15;;;;;;;;;;;;;;;13.88;100.00;97959.38;5117663;28;19990;-67
2023/10/12 04:54:59;;;;;;;;;;;;;;;13.84;100.00;97971.75;5116966;28;19924;-67
2023/10/12 04:57:26;;;;;;;;;;;;;;;13.60;100.00;97978.94;5109835;28;20006;-66
2023/10/12 05:00:04;;;;;;;;;;;;;;;13.50;100.00;97968.25;5115863;28;20725;-66
2023/10/12 05:02:42;;;;;;;;;;;;;;;13.32;100.00;97971.63;5120109;28;19935;-66
2023/10/12 05:05:54;;;;;;;;;;;;;;;13.43;100.00;97975.84;5117586;28;19951;-67
2023/10/12 05:08:03;;;;;;;;;;;;;;;13.34;100.00;97978.28;5118419;28;19956;-67
2023/10/12 05:10:46;;;;;;;;;;;;;;;13.34;100.00;97970.25;5120342;28;19998;-67
2023/10/12 05:13:19;;;;;;;;;;;;;;;13.48;100.00;97973.94;5116884;28;19924;-67
2023/10/12 05:15:54;;;;;;;;;;;;;;;13.80;100.00;97983.34;5116545;28;19925;-67
2023/10/12 05:18:21;;;;;;;;;;;;;;;14.05;100.00;97973.16;5109182;28;19947;-67
2023/10/12 05:20:49;;;;;;;;;;;;;;;13.84;100.00;97984.34;5115498;28;19932;-67
2023/10/12 05:23:16;;;;;;;;;;;;;;;13.59;100.00;97974.63;5119817;28;19985;-67
2023/10/12 05:25:53;;;;;;;;;;;;;;;13.42;100.00;97969.69;5120360;28;19928;-67
2023/10/12 05:28:21;;;;;;;;;;;;;;;13.35;100.00;97981.78;5108769;28;19932;-67
2023/10/12 05:30:50;;;;;;;;;;;;;;;13.15;100.00;97988.06;5116112;28;19928;-67
2023/10/12 05:33:38;;;;;;;;;;;;;;;13.31;100.00;97994.16;5106966;28;19920;-67
2023/10/12 05:36:08;;;;;;;;;;;;;;;13.17;100.00;98003.91;5114065;28;19925;-67
2023/10/12 05:38:36;;;;;;;;;;;;;;;13.17;100.00;98010.06;5116236;28;19970;-67
2023/10/12 05:41:04;;;;;;;;;;;;;;;13.34;100.00;97998.94;5116137;28;19928;-68
2023/10/12 05:43:33;;;;;;;;;;;;;;;13.79;100.00;98008.56;5106792;28;19932;-67
2023/10/12 05:46:01;;;;;;;;;;;;;;;14.04;100.00;98014.53;5103359;28;19934;-67
2023/10/12 05:48:28;;;;;;;;;;;;;;;14.15;100.00;98022.47;5105621;28;19931;-67
2023/10/12 05:50:54;;;;;;;;;;;;;;;14.23;100.00;98016.50;5105011;28;19931;-67
2023/10/12 05:53:22;;;;;;;;;;;;;;;14.14;100.00;98027.06;5102146;28;19954;-67
2023/10/12 05:55:48;;;;;;;;;;;;;;;13.58;100.00;98029.41;5102407;28;19928;-67
2023/10/12 05:58:15;;;;;;;;;;;;;;;13.49;100.00;98020.34;5106304;28;19950;-67
2023/10/12 06:00:44;;;;;;;;;;;;;;;13.26;100.00;98021.81;5105566;28;19983;-67
2023/10/12 06:03:15;;;;;;;;;;;;;;;13.34;100.00;98031.13;5102787;28;19924;-67
2023/10/12 06:05:42;;;;;;;;;;;;;;;13.29;100.00;98023.13;5100879;28;19924;-67
2023/10/12 06:08:10;;;;;;;;;;;;;;;13.41;100.00;98021.72;5101036;28;19920;-68
2023/10/12 06:10:41;;;;;;;;;;;;;;;13.15;100.00;98014.09;5102058;28;19995;-68
2023/10/12 06:13:09;;;;;;;;;;;;;;;12.98;100.00;98020.59;5104036;28;19939;-67
2023/10/12 06:15:40;;;;;;;;;;;;;;;12.95;100.00;98029.19;5105614;28;19950;-67
2023/10/12 06:18:07;;;;;;;;;;;;;;;12.94;100.00;98024.88;5103225;28;19924;-67
2023/10/12 06:20:40;;;;;;;;;;;;;;;12.75;100.00;98034.59;5102040;28;19924;-67
2023/10/12 06:23:08;;;;;;;;;;;;;;;12.75;100.00;98031.94;5104062;28;20070;-67
2023/10/12 06:25:37;;;;;;;;;;;;;;;12.65;100.00;98034.66;5105264;28;19954;-67
2023/10/12 06:28:13;;;;;;;;;;;;;;;12.70;100.00;98028.47;5103250;28;19924;-67
2023/10/12 06:30:40;;;;;;;;;;;;;;;12.81;100.00;98036.19;5100590;28;19928;-67
2023/10/12 06:33:12;;;;;;;;;;;;;;;12.66;100.00;98041.59;5103324;28;19925;-67
2023/10/12 06:35:39;;;;;;;;;;;;;;;12.72;100.00;98047.78;5103988;28;19957;-67
2023/10/12 06:41:00;;;;;;;;;;;;;;;12.78;100.00;98052.81;5099857;28;19935;-67
2023/10/12 06:46:16;;;;;;;;;;;;;;;12.81;100.00;98063.00;5104177;28;19924;-67
2023/10/12 06:48:46;;;;;;;;;;;;;;;12.95;100.00;98064.03;5104187;28;19940;-67
2023/10/12 06:51:14;;;;;;;;;;;;;;;12.93;100.00;98063.50;5100046;28;19931;-67
2023/10/12 06:53:40;;;;;;;;;;;;;;;13.15;100.00;98068.50;5100714;28;19971;-68
2023/10/12 06:56:16;;;;;;;;;;;;;;;13.14;100.00;98083.03;5102433;28;19924;-68
2023/10/12 06:58:44;;;;;;;;;;;;;;;12.93;100.00;98084.16;5103205;28;19924;-67
2023/10/12 07:01:18;;;;;;;;;;;;;;;12.92;100.00;98086.03;5101262;28;19928;-67
2023/10/12 07:03:47;;;;;;;;;;;;;;;12.81;100.00;98089.78;5100711;28;19963;-68
2023/10/12 07:06:15;;;;;;;;;;;;;;;12.81;100.00;98084.44;5098415;28;19924;-68
2023/10/12 07:08:42;;;;;;;;;;;;;;;12.86;100.00;98089.00;5100455;28;20047;-68
2023/10/12 07:11:11;;;;;;;;;;;;;;;12.84;100.00;98091.94;5102910;28;19928;-68
2023/10/12 07:13:41;;;;;;;;;;;;;;;12.85;100.00;98090.88;5104205;28;19928;-68
2023/10/12 07:16:08;;;;;;;;;;;;;;;12.83;100.00;98092.22;5101676;28;20020;-68
2023/10/12 07:18:36;;;;;;;;;;;;;;;12.92;100.00;98090.56;5100481;28;20494;-68
2023/10/12 07:21:05;;;;;;;;;;;;;;;13.02;100.00;98085.19;5101767;28;19936;-68
2023/10/12 07:23:35;;;;;;;;;;;;;;;13.01;100.00;98083.56;5104086;28;20006;-67
2023/10/12 07:26:07;;;;;;;;;;;;;;;13.01;100.00;98091.63;5102233;28;19924;-67
2023/10/12 07:28:34;;;;;;;;;;;;;;;13.07;100.00;98089.72;5100222;28;19999;-67
2023/10/12 07:31:15;;;;;;;;;;;;;;;13.14;100.00;98092.94;5100151;28;19932;-67
2023/10/12 07:33:52;;;;;;;;;;;;;;;13.21;100.00;98096.94;5103728;28;19924;-68
2023/10/12 07:36:18;;;;;;;;;;;;;;;13.34;100.00;98107.06;5087799;28;19925;-67
2023/10/12 07:38:46;;;;;;;;;;;;;;;13.45;100.00;98089.03;5100015;28;19924;-67
2023/10/12 07:41:13;;;;;;;;;;;;;;;13.62;100.00;98102.06;5103147;28;19924;-67
2023/10/12 07:43:41;;;;;;;;;;;;;;;13.69;100.00;98092.66;5103442;28;19924;-67
2023/10/12 07:46:13;;;;;;;;;;;;;;;13.70;100.00;98091.56;5101218;28;19946;-67
2023/10/12 07:48:44;;;;;;;;;;;;;;;13.77;100.00;98096.63;5099981;28;19925;-67
2023/10/12 07:51:24;;;;;;;;;;;;;;;14.12;100.00;98099.03;5102838;28;19987;-67
2023/10/12 07:53:57;;;;;;;;;;;;;;;14.03;100.00;98101.53;5103659;28;19991;-67
2023/10/12 07:56:23;;;;;;;;;;;;;;;14.04;100.00;98097.78;5092754;28;19935;-68
2023/10/12 07:58:57;;;;;;;;;;;;;;;14.12;100.00;98092.88;5100042;28;19932;-68
2023/10/12 08:01:39;;;;;;;;;;;;;;;14.13;100.00;98094.47;5092509;28;19924;-67
2023/10/12 08:04:09;;;;;;;;;;;;;;;14.14;100.00;98093.41;5101902;28;19924;-66
2023/10/12 08:06:42;;;;;;;;;;;;;;;14.49;100.00;98093.09;5095088;28;19932;-66
2023/10/12 08:09:21;;;;;;;;;;;;;;;14.39;100.00;98087.84;5102249;28;19946;-66
2023/10/12 08:11:47;;;;;;;;;;;;;;;14.31;100.00;98085.72;5102190;28;19924;-68
2023/10/12 08:14:39;;;;;;;;;;;;;;;14.38;100.00;98096.97;5100189;28;19972;-68
2023/10/12 08:19:54;;;;;;;;;;;;;;;14.55;100.00;98097.34;5103140;28;19924;-68
2023/10/12 08:22:26;;;;;;;;;;;;;;;14.71;100.00;98095.31;5092503;28;19924;-67
2023/10/12 08:24:53;;;;;;;;;;;;;;;14.84;100.00;98079.31;5100220;28;19970;-67
2023/10/12 08:27:19;;;;;;;;;;;;;;;14.94;100.00;98087.28;5103188;28;19928;-68
2023/10/12 08:30:11;;;;;;;;;;;;;;;15.05;100.00;98099.50;5103008;28;20002;-68
2023/10/12 08:32:38;;;;;;;;;;;;;;;15.17;100.00;98103.66;5093726;28;19924;-67
2023/10/12 08:35:32;;;;;;;;;;;;;;;15.27;100.00;98108.91;5101637;28;19935;-67
2023/10/12 08:38:11;;;;;;;;;;;;;;;15.37;100.00;98114.19;5097291;28;19947;-67
2023/10/12 08:40:53;;;;;;;;;;;;;;;15.47;100.00;98111.38;5099278;28;19932;-67
2023/10/12 08:43:42;;;;;;;;;;;;;;;15.56;100.00;98098.91;5091373;28;19989;-68
2023/10/12 08:46:10;;;;;;;;;;;;;;;15.67;100.00;98086.88;5100936;28;20001;-67
2023/10/12 08:48:36;;;;;;;;;;;;;;;15.76;100.00;98079.75;5102730;28;19920;-68
2023/10/12 08:51:09;;;;;;;;;;;;;;;15.83;100.00;98069.41;5101261;28;19999;-68
2023/10/12 08:53:39;;;;;;;;;;;;;;;15.94;100.00;98070.84;5099782;28;19996;-68
2023/10/12 08:56:08;;;;;;;;;;;;;;;16.02;100.00;98072.09;5101541;28;20000;-69
2023/10/12 08:58:43;;;;;;;;;;;;;;;16.11;100.00;98079.22;5102907;28;19946;-67
2023/10/12 09:01:10;;;;;;;;;;;;;;;16.22;100.00;98065.56;5100125;28;19969;-67
2023/10/12 09:03:44;;;;;;;;;;;;;;;16.30;100.00;98064.88;5099212;28;19935;-67
2023/10/12 09:06:29;;;;;;;;;;;;;;;16.40;100.00;98067.41;5096977;28;19931;-68
2023/10/12 09:08:56;;;;;;;;;;;;;;;16.60;100.00;98061.66;5098874;28;19924;-68
2023/10/12 09:11:26;;;;;;;;;;;;;;;16.74;100.00;98057.88;5102602;28;19925;-68
2023/10/12 09:13:52;;;;;;;;;;;;;;;16.89;100.00;98062.19;5102182;28;19935;-68
2023/10/12 09:16:18;;;;;;;;;;;;;;;17.02;100.00;98068.69;5098972;28;19924;-67
2023/10/12 09:18:45;;;;;;;;;;;;;;;17.11;100.00;98069.59;5101010;28;19924;-68
2023/10/12 09:21:18;;;;;;;;;;;;;;;17.09;100.00;98079.88;5104417;28;19924;-68
2023/10/12 09:23:50;;;;;;;;;;;;;;;17.22;100.00;98079.06;5105063;28;20315;-68
2023/10/12 09:26:30;;;;;;;;;;;;;;;17.34;100.00;98078.53;5101444;28;19925;-67
2023/10/12 09:29:08;;;;;;;;;;;;;;;17.46;100.00;98081.53;5103128;28;19931;-67
2023/10/12 09:31:55;;;;;;;;;;;;;;;17.54;100.00;98075.41;5105773;28;19920;-67
2023/10/12 09:37:06;;;;;;;;;;;;;;;17.57;100.00;98082.94;5100165;28;19931;-67
2023/10/12 09:39:34;;;;;;;;;;;;;;;17.69;100.00;98078.63;5106294;28;19924;-68
2023/10/12 09:42:13;;;;;;;;;;;;;;;17.83;100.00;98073.16;5104894;28;19943;-68
2023/10/12 09:44:40;;;;;;;;;;;;;;;17.93;100.00;98070.22;5102612;28;19931;-68
2023/10/12 09:47:15;;;;;;;;;;;;;;;18.06;100.00;98072.06;5104429;28;19927;-68
2023/10/12 09:49:47;;;;;;;;;;;;;;;18.13;100.00;98075.16;5105881;28;20039;-69
2023/10/12 09:52:16;;;;;;;;;;;;;;;18.19;100.00;98070.41;5102637;28;19924;-68
2023/10/12 09:54:46;;;;;;;;;;;;;;;18.25;100.00;98071.88;5102317;28;19924;-68
2023/10/12 09:57:23;;;;;;;;;;;;;;;18.25;100.00;98064.56;5104980;28;19946;-68
2023/10/12 09:59:53;;;;;;;;;;;;;;;18.23;100.00;98065.97;5105568;28;19920;-67
2023/10/12 10:02:28;;;;;;;;;;;;;;;18.26;100.00;98059.94;5094082;28;19924;-67
2023/10/12 10:05:01;;;;;;;;;;;;;;;18.37;100.00;98072.13;5102305;28;19931;-69
2023/10/12 10:07:32;;;;;;;;;;;;;;;18.31;100.00;98073.34;5101024;28;20011;-69
2023/10/12 10:10:01;;;;;;;;;;;;;;;18.33;100.00;98085.44;5104309;28;19931;-69
2023/10/12 10:12:30;;;;;;;;;;;;;;;18.28;100.00;98077.47;5101625;28;19925;-68
2023/10/12 10:15:00;;;;;;;;;;;;;;;18.38;100.00;98083.72;5102594;28;19925;-68
2023/10/12 10:17:35;;;;;;;;;;;;;;;18.46;100.00;98062.13;5105296;28;19924;-68
2023/10/12 10:20:46;;;;;;;;;;;;;;;18.50;100.00;98071.28;5103809;28;19924;-68
2023/10/12 10:23:13;;;;;;;;;;;;;;;18.53;100.00;98077.97;5103528;28;19992;-68
2023/10/12 10:25:45;;;;;;;;;;;;;;;18.60;100.00;98075.63;5105239;28;19924;-68
2023/10/12 10:28:19;;;;;;;;;;;;;;;18.64;100.00;98071.16;5102256;28;19991;-68
2023/10/12 10:30:49;;;;;;;;;;;;;;;18.66;100.00;98063.56;5099943;28;19924;-68
2023/10/12 10:33:17;;;;;;;;;;;;;;;18.73;100.00;98063.88;5104592;28;19925;-68
2023/10/12 10:36:00;;;;;;;;;;;;;;;18.77;100.00;98059.47;5102545;28;19928;-68
2023/10/12 10:38:32;;;;;;;;;;;;;;;18.87;100.00;98048.38;5094312;28;19931;-68
2023/10/12 10:41:07;;;;;;;;;;;;;;;18.93;100.00;98049.81;5101796;28;19925;-68
2023/10/12 10:43:37;;;;;;;;;;;;;;;18.81;100.00;98053.13;5104760;28;19924;-68
2023/10/12 10:46:06;;;;;;;;;;;;;;;18.70;100.00;98056.41;5102921;28;20003;-68
2023/10/12 10:48:33;;;;;;;;;;;;;;;18.45;100.00;98040.81;5101171;28;19987;-68
2023/10/12 10:51:02;;;;;;;;;;;;;;;18.51;100.00;98051.22;5102055;28;19947;-68
2023/10/12 10:53:31;;;;;;;;;;;;;;;18.82;100.00;98041.16;5104390;28;19924;-69
2023/10/12 10:55:58;;;;;;;;;;;;;;;18.97;100.00;98045.34;5103671;28;19924;-68
2023/10/12 10:58:24;;;;;;;;;;;;;;;19.02;100.00;98034.41;5100976;28;19985;-68
2023/10/12 11:00:57;;;;;;;;;;;;;;;19.02;100.00;98037.09;5101586;28;19925;-68
2023/10/12 11:03:25;;;;;;;;;;;;;;;19.03;100.00;98029.78;5094181;28;19963;-67
2023/10/12 11:05:52;;;;;;;;;;;;;;;18.96;100.00;98030.25;5098720;28;19942;-68
2023/10/12 11:08:22;;;;;;;;;;;;;;;18.80;100.00;98021.75;5100891;28;19946;-68
2023/10/12 11:13:33;;;;;;;;;;;;;;;19.11;100.00;98029.00;5094850;28;19960;-68
2023/10/12 11:16:05;;;;;;;;;;;;;;;19.17;100.00;98038.56;5101734;28;19924;-68
2023/10/12 11:18:31;;;;;;;;;;;;;;;19.33;100.00;98037.00;5104371;28;19924;-68
2023/10/12 11:21:00;;;;;;;;;;;;;;;19.24;100.00;98031.59;5103171;28;19956;-68
2023/10/12 11:23:26;;;;;;;;;;;;;;;19.26;100.00;98034.75;5100812;28;19978;-67
2023/10/12 11:26:04;;;;;;;;;;;;;;;19.32;100.00;98033.50;5100534;28;19924;-68
2023/10/12 11:28:33;;;;;;;;;;;;;;;19.29;100.00;98028.72;5104088;28;19924;-68
2023/10/12 11:31:17;;;;;;;;;;;;;;;19.26;100.00;98039.38;5102785;28;19957;-68
2023/10/12 11:33:48;;;;;;;;;;;;;;;19.37;100.00;98033.34;5100942;28;19970;-68
2023/10/12 11:36:18;;;;;;;;;;;;;;;19.47;100.00;98036.88;5098372;28;19931;-68
2023/10/12 11:38:46;;;;;;;;;;;;;;;19.52;100.00;98025.91;5099595;28;19924;-68
2023/10/12 11:41:13;;;;;;;;;;;;;;;19.26;100.00;98033.97;5102667;28;19928;-67
2023/10/12 11:43:49;;;;;;;;;;;;;;;19.09;100.00;98012.28;5102522;28;19960;-68
2023/10/12 11:46:17;;;;;;;;;;;;;;;18.46;100.00;98016.16;5100146;28;19931;-68
2023/10/12 11:48:43;;;;;;;;;;;;;;;18.54;100.00;98022.75;5100109;28;19939;-67
2023/10/12 11:51:11;;;;;;;;;;;;;;;18.69;100.00;98011.53;5102277;28;19964;-67
2023/10/12 11:53:38;;;;;;;;;;;;;;;18.66;100.00;98014.88;5103395;28;19924;-68
2023/10/12 11:56:10;;;;;;;;;;;;;;;18.66;100.00;98015.63;5101640;28;19990;-67
2023/10/12 11:58:37;;;;;;;;;;;;;;;19.06;100.00;98021.03;5099960;28;19924;-68
2023/10/12 12:01:03;;;;;;;;;;;;;;;19.04;100.00;98009.72;5101185;28;19928;-68
2023/10/12 12:03:39;;;;;;;;;;;;;;;18.84;100.00;98005.69;5103341;28;19924;-68
2023/10/12 12:06:10;;;;;;;;;;;;;;;18.67;100.00;98001.00;5096622;28;19988;-68
2023/10/12 12:08:36;;;;;;;;;;;;;;;18.58;100.00;97993.97;5099629;28;19978;-68
2023/10/12 12:11:04;;;;;;;;;;;;;;;18.83;100.00;98004.09;5101175;28;19920;-68
2023/10/12 12:13:35;;;;;;;;;;;;;;;19.08;100.00;98019.59;5103181;28;19946;-68
2023/10/12 12:16:02;;;;;;;;;;;;;;;19.25;100.00;98011.50;5101628;28;19995;-68
2023/10/12 12:18:29;;;;;;;;;;;;;;;19.19;100.00;98007.34;5099623;28;19956;-68
2023/10/12 12:20:57;;;;;;;;;;;;;;;19.36;100.00;98018.22;5099899;28;19925;-69
2023/10/12 12:23:27;;;;;;;;;;;;;;;18.82;100.00;98018.72;5103157;28;19932;-69
2023/10/12 12:25:59;;;;;;;;;;;;;;;19.07;100.00;98009.06;5102728;28;19962;-69
2023/10/12 12:28:31;;;;;;;;;;;;;;;19.30;100.00;98008.66;5098421;28;19960;-69
2023/10/12 12:31:00;;;;;;;;;;;;;;;19.11;100.00;98016.25;5099023;28;19959;-69
2023/10/12 12:33:27;;;;;;;;;;;;;;;19.19;100.00;98023.59;5102952;28;19992;-69
2023/10/12 12:35:59;;;;;;;;;;;;;;;19.40;100.00;98008.34;5098191;28;20054;-68
2023/10/12 12:38:43;;;;;;;;;;;;;;;19.50;100.00;98003.75;5099515;28;19943;-68
2023/10/12 12:41:18;;;;;;;;;;;;;;;19.58;100.00;98003.75;5100659;28;19929;-68
2023/10/12 12:43:44;;;;;;;;;;;;;;;19.68;100.00;97994.53;5102852;28;19930;-68
2023/10/12 12:46:11;;;;;;;;;;;;;;;19.46;100.00;98006.31;5100258;28;19924;-68
2023/10/12 12:48:38;;;;;;;;;;;;;;;19.63;100.00;98000.09;5098445;28;19924;-68
2023/10/12 12:51:12;;;;;;;;;;;;;;;19.76;100.00;97999.94;5101312;28;19925;-68
2023/10/12 12:53:39;;;;;;;;;;;;;;;19.79;100.00;97995.78;5104385;28;19977;-68
2023/10/12 12:56:10;;;;;;;;;;;;;;;19.71;100.00;98000.06;5105255;28;19946;-67
2023/10/12 12:58:36;;;;;;;;;;;;;;;19.53;100.00;98011.25;5103357;28;19924;-67
2023/10/12 13:01:03;;;;;;;;;;;;;;;19.54;100.00;98002.00;5105134;28;19947;-67
2023/10/12 13:03:29;;;;;;;;;;;;;;;19.44;100.00;98002.31;5106649;28;19924;-67
2023/10/12 13:05:56;;;;;;;;;;;;;;;19.17;100.00;98016.91;5101343;28;19967;-68
2023/10/12 13:08:22;;;;;;;;;;;;;;;19.30;100.00;98022.19;5103001;28;19924;-68
2023/10/12 13:10:50;;;;;;;;;;;;;;;19.27;100.00;98017.41;5101415;28;19952;-68
2023/10/12 13:13:16;;;;;;;;;;;;;;;19.39;100.00;98012.19;5106164;28;19931;-67
2023/10/12 13:15:47;;;;;;;;;;;;;;;19.50;100.00;98012.66;5106538;28;19928;-67
2023/10/12 13:18:15;;;;;;;;;;;;;;;19.40;100.00;98002.94;5103643;28;19948;-67
2023/10/12 13:20:46;;;;;;;;;;;;;;;19.38;100.00;98010.56;5103174;28;19967;-67
2023/10/12 13:23:13;;;;;;;;;;;;;;;19.48;100.00;98011.41;5105321;28;19947;-67
2023/10/12 13:25:39;;;;;;;;;;;;;;;19.49;100.00;98013.00;5105742;28;19927;-67
2023/10/12 13:28:09;;;;;;;;;;;;;;;19.53;100.00;98008.56;5103677;28;19924;-67
2023/10/12 13:30:36;;;;;;;;;;;;;;;19.54;100.00;98016.34;5102160;28;20480;-67
2023/10/12 13:33:03;;;;;;;;;;;;;;;19.37;100.00;98017.09;5103498;28;19955;-67
2023/10/12 13:35:37;;;;;;;;;;;;;;;19.00;100.00;98008.75;5105708;28;20600;-67